Terminal Aerodrome Forecast
Issued by NWS

Home | Current Version | Previous Version | Text Only | Print | Product List | Glossary Off
Versions: 1 2 3 4 5 6 7 8 9 10 11 12 13 14 15

283
FTUS43 KABR 060538
TAFPIR
TAF
KPIR 060538Z 0606/0706 21009KT P6SM SKC
     FM061800 24012KT P6SM SCT250
     FM062200 27015KT P6SM BKN150
     FM070400 29024G34KT P6SM BKN120=

USA.gov is the U.S. government's official web portal to all federal, state and local government web resources and services.